Time;durP1;ratioP1;P1;durP2;ratioP2;P2;SDS_P1;SDS_P2;PMS_P1;PMS_P2;Temp;Humidity;BMP_temperature;BMP_pressure;BME280_temperature;BME280_humidity;BME280_pressure;Samples;Min_cycle;Max_cycle;Signal;HPM_P1;HPM_P2
2022/12/23 00:00:27;;;;;;;2.55;0.90;;;10.90;99.90;;;;;;5033319;28;20152;-50
2022/12/23 00:02:54;;;;;;;2.55;1.17;;;10.90;99.90;;;;;;5039885;28;20096;-49
2022/12/23 00:05:21;;;;;;;2.00;0.98;;;10.90;99.90;;;;;;5033848;28;20052;-47
2022/12/23 00:07:48;;;;;;;3.00;1.00;;;10.90;99.90;;;;;;5033357;28;20100;-49
2022/12/23 00:10:15;;;;;;;2.92;1.13;;;10.90;99.90;;;;;;5033407;28;20049;-46
2022/12/23 00:15:27;;;;;;;1.52;0.85;;;10.90;99.90;;;;;;5033361;28;20120;-49
2022/12/23 00:17:54;;;;;;;2.35;0.90;;;10.80;99.90;;;;;;5033255;28;20045;-47
2022/12/23 00:20:21;;;;;;;2.25;1.00;;;10.80;99.90;;;;;;5053664;28;20444;-49
2022/12/23 00:23:06;;;;;;;2.10;0.90;;;10.80;99.90;;;;;;5055235;28;20047;-50
2022/12/23 00:25:45;;;;;;;2.63;1.10;;;10.80;99.90;;;;;;5052940;28;20044;-50
2022/12/23 00:28:13;;;;;;;3.45;1.23;;;10.70;99.90;;;;;;5039237;28;20051;-50
2022/12/23 00:30:39;;;;;;;3.15;1.30;;;10.70;99.90;;;;;;5033014;28;20112;-45
2022/12/23 00:33:06;;;;;;;2.47;1.00;;;10.70;99.90;;;;;;5047061;28;20037;-47
2022/12/23 00:35:33;;;;;;;3.03;1.17;;;10.70;99.90;;;;;;5033526;28;20049;-50
2022/12/23 00:38:00;;;;;;;2.70;1.13;;;10.70;99.90;;;;;;5062824;28;20059;-44
2022/12/23 00:43:12;;;;;;;2.75;1.20;;;10.70;99.90;;;;;;5037145;28;20427;-47
2022/12/23 00:45:38;;;;;;;1.77;1.00;;;10.60;99.90;;;;;;5053461;28;20052;-47
2022/12/23 00:50:51;;;;;;;2.08;1.10;;;10.60;99.90;;;;;;5051772;28;20099;-49
2022/12/23 00:53:18;;;;;;;4.50;1.00;;;10.60;99.90;;;;;;5050015;28;20041;-46
2022/12/23 00:55:48;;;;;;;3.13;1.10;;;10.60;99.90;;;;;;5052563;28;20072;-44
2022/12/23 00:58:14;;;;;;;2.78;1.10;;;10.60;99.90;;;;;;5034894;28;20048;-50
2022/12/23 01:06:13;;;;;;;1.88;0.90;;;10.60;99.90;;;;;;5045747;28;20049;-45
2022/12/23 01:08:39;;;;;;;2.97;0.88;;;10.60;99.90;;;;;;5054678;28;20233;-50
2022/12/23 01:11:06;;;;;;;2.58;1.08;;;10.60;99.90;;;;;;5036263;28;20049;-51
2022/12/23 01:13:33;;;;;;;3.33;0.90;;;10.60;99.90;;;;;;5056122;28;20048;-44
2022/12/23 01:16:00;;;;;;;2.63;1.13;;;10.60;99.90;;;;;;5055729;28;20053;-44
2022/12/23 01:18:27;;;;;;;1.55;0.85;;;10.50;99.90;;;;;;5056110;28;20045;-50
2022/12/23 01:20:53;;;;;;;2.78;1.00;;;10.50;99.90;;;;;;5053862;28;20033;-47
2022/12/23 01:23:20;;;;;;;3.00;1.10;;;10.50;99.90;;;;;;5040104;28;20087;-45
2022/12/23 01:25:47;;;;;;;4.75;1.15;;;10.50;99.90;;;;;;5054899;28;20033;-50
2022/12/23 01:28:14;;;;;;;2.70;1.10;;;10.50;99.90;;;;;;5043952;28;20124;-47
2022/12/23 01:30:40;;;;;;;1.90;1.00;;;10.50;99.90;;;;;;5035620;28;20064;-49
2022/12/23 01:33:07;;;;;;;2.88;1.00;;;10.40;99.90;;;;;;5034222;28;20045;-44
2022/12/23 01:35:34;;;;;;;2.00;0.95;;;10.40;99.90;;;;;;5038731;28;20438;-46
2022/12/23 01:38:00;;;;;;;2.20;0.82;;;10.40;99.90;;;;;;5044064;28;20049;-49
2022/12/23 01:40:27;;;;;;;3.78;0.90;;;10.40;99.90;;;;;;5053934;28;20056;-44
2022/12/23 01:42:54;;;;;;;3.90;1.10;;;10.40;99.90;;;;;;5052058;28;20041;-46
2022/12/23 01:45:21;;;;;;;3.55;0.82;;;10.40;99.90;;;;;;5035036;28;20042;-50
2022/12/23 01:47:47;;;;;;;3.17;0.70;;;10.40;99.90;;;;;;5034742;28;20049;-46
2022/12/23 01:50:14;;;;;;;2.70;0.80;;;10.40;99.90;;;;;;5034288;28;20048;-45
2022/12/23 01:52:41;;;;;;;2.60;0.80;;;10.40;99.90;;;;;;5044845;28;20479;-48
2022/12/23 01:55:07;;;;;;;2.15;0.80;;;10.40;99.90;;;;;;5053336;28;20103;-48
2022/12/23 01:57:34;;;;;;;1.98;0.82;;;10.40;99.90;;;;;;5053576;28;20052;-43
2022/12/23 02:05:33;;;;;;;2.55;0.70;;;10.40;99.90;;;;;;5039529;28;20056;-44
2022/12/23 02:10:45;;;;;;;3.45;0.60;;;10.30;99.90;;;;;;5033525;28;20053;-49
2022/12/23 02:13:12;;;;;;;2.65;0.80;;;10.30;99.90;;;;;;5032975;28;20140;-50
2022/12/23 02:18:24;;;;;;;2.33;0.55;;;10.40;99.90;;;;;;5033905;28;20489;-52
2022/12/23 02:20:51;;;;;;;1.17;0.50;;;10.30;99.90;;;;;;5034138;28;20041;-45
2022/12/23 02:23:18;;;;;;;2.80;0.52;;;10.30;99.90;;;;;;5034222;28;20095;-48
2022/12/23 02:25:45;;;;;;;2.05;0.55;;;10.30;99.90;;;;;;5037416;28;20041;-49
2022/12/23 02:28:11;;;;;;;1.75;0.70;;;10.30;99.90;;;;;;5046401;28;20080;-47
2022/12/23 02:30:38;;;;;;;2.78;0.75;;;10.30;99.90;;;;;;5035027;28;20481;-48
2022/12/23 02:33:05;;;;;;;1.52;0.73;;;10.30;99.90;;;;;;5034094;28;20069;-49
2022/12/23 02:35:32;;;;;;;1.63;0.65;;;10.30;99.90;;;;;;5039788;28;20041;-49
2022/12/23 02:37:58;;;;;;;2.65;0.60;;;10.30;99.90;;;;;;5051328;28;20121;-48
2022/12/23 02:40:25;;;;;;;2.17;0.70;;;10.30;99.90;;;;;;5033143;28;20452;-48
2022/12/23 02:42:52;;;;;;;2.20;0.63;;;10.30;99.90;;;;;;5048001;28;20049;-51
2022/12/23 02:45:18;;;;;;;2.72;0.70;;;10.20;99.90;;;;;;5036016;28;20432;-51
2022/12/23 02:47:45;;;;;;;2.05;0.55;;;10.20;99.90;;;;;;5032688;28;20461;-46
2022/12/23 02:50:12;;;;;;;2.00;0.50;;;10.20;99.90;;;;;;5033596;28;20072;-44
2022/12/23 02:52:39;;;;;;;3.03;0.68;;;10.20;99.90;;;;;;5033757;28;20030;-54
2022/12/23 02:55:05;;;;;;;1.50;0.40;;;10.20;99.90;;;;;;5033556;28;20117;-52
2022/12/23 02:57:32;;;;;;;1.30;0.60;;;10.10;99.90;;;;;;5052054;28;20148;-52
2022/12/23 02:59:59;;;;;;;3.40;0.70;;;10.10;99.90;;;;;;5041131;28;20370;-47
2022/12/23 03:02:25;;;;;;;2.60;0.60;;;10.10;99.90;;;;;;5036379;28;20037;-47
2022/12/23 03:04:52;;;;;;;1.95;0.85;;;10.10;99.90;;;;;;5048424;28;20524;-48
2022/12/23 03:07:19;;;;;;;3.05;0.50;;;10.10;99.90;;;;;;5040219;28;20037;-44
2022/12/23 03:09:46;;;;;;;1.95;0.65;;;10.10;99.90;;;;;;5046980;28;20064;-47
2022/12/23 03:12:13;;;;;;;2.13;0.65;;;10.10;99.90;;;;;;5053437;28;20045;-50
2022/12/23 03:14:40;;;;;;;1.20;0.40;;;10.10;99.90;;;;;;5033665;28;20111;-46
2022/12/23 03:17:07;;;;;;;1.15;0.50;;;10.10;99.90;;;;;;5033790;28;20042;-50
2022/12/23 03:19:33;;;;;;;2.70;0.68;;;10.10;99.90;;;;;;5046338;28;20084;-47
2022/12/23 03:22:00;;;;;;;1.35;0.68;;;10.10;99.90;;;;;;5053241;28;20048;-46
2022/12/23 03:24:27;;;;;;;1.73;0.60;;;10.00;99.90;;;;;;5052565;28;20083;-45
2022/12/23 03:26:53;;;;;;;2.55;0.70;;;10.00;99.90;;;;;;5033530;28;20041;-50
2022/12/23 03:29:20;;;;;;;1.73;0.70;;;10.00;99.90;;;;;;5033732;28;20069;-48
2022/12/23 03:31:47;;;;;;;1.75;0.73;;;10.00;99.90;;;;;;5032271;28;20492;-47
2022/12/23 03:34:14;;;;;;;3.03;0.80;;;10.00;99.90;;;;;;5032262;28;20432;-50
2022/12/23 03:36:40;;;;;;;1.77;0.70;;;9.90;99.90;;;;;;5032944;28;20057;-48
2022/12/23 03:39:07;;;;;;;2.55;0.77;;;10.00;99.90;;;;;;5047300;28;20037;-43
2022/12/23 03:41:34;;;;;;;1.80;0.60;;;10.00;99.90;;;;;;5053206;28;20064;-43
2022/12/23 03:44:01;;;;;;;3.22;0.80;;;10.00;99.90;;;;;;5053332;28;20045;-44
2022/12/23 03:46:27;;;;;;;2.97;0.80;;;10.00;99.90;;;;;;5053261;28;20033;-44
2022/12/23 03:48:54;;;;;;;2.13;0.77;;;10.00;99.90;;;;;;5053310;28;20488;-44
2022/12/23 03:51:21;;;;;;;2.03;0.80;;;10.00;99.90;;;;;;5053536;28;20041;-45
2022/12/23 03:53:48;;;;;;;1.50;0.60;;;10.00;99.90;;;;;;5038126;28;20420;-47
2022/12/23 03:56:14;;;;;;;2.75;0.75;;;10.00;99.90;;;;;;5033397;28;20099;-45
2022/12/23 03:58:41;;;;;;;4.53;0.85;;;10.00;99.90;;;;;;5033091;28;20121;-43
2022/12/23 04:01:08;;;;;;;1.40;0.60;;;10.00;99.90;;;;;;5035289;28;20107;-43
2022/12/23 04:03:35;;;;;;;2.70;0.80;;;10.00;99.90;;;;;;5052945;28;20554;-44
2022/12/23 04:06:01;;;;;;;1.98;0.70;;;10.00;99.90;;;;;;5052794;28;20537;-43
2022/12/23 04:08:28;;;;;;;2.42;0.77;;;10.00;99.90;;;;;;5053096;28;20460;-43
2022/12/23 04:10:55;;;;;;;1.40;0.70;;;10.00;99.90;;;;;;5036706;28;20045;-44
2022/12/23 04:13:22;;;;;;;1.70;0.82;;;9.90;99.90;;;;;;5033240;28;20045;-46
2022/12/23 04:15:48;;;;;;;1.42;0.63;;;10.00;99.90;;;;;;5032616;28;20053;-47
2022/12/23 04:18:15;;;;;;;2.30;0.80;;;9.90;99.90;;;;;;5033585;28;20056;-45
2022/12/23 04:20:42;;;;;;;1.40;0.60;;;9.90;99.90;;;;;;5034425;28;20507;-49
2022/12/23 04:23:08;;;;;;;1.85;0.60;;;9.90;99.90;;;;;;5036758;28;20056;-44
2022/12/23 04:25:35;;;;;;;3.53;0.93;;;10.00;99.90;;;;;;5035562;28;20052;-50
2022/12/23 04:28:02;;;;;;;0.95;0.45;;;9.90;99.90;;;;;;5037662;28;20099;-46
2022/12/23 04:30:29;;;;;;;1.42;0.55;;;9.90;99.90;;;;;;5036936;28;20037;-50
2022/12/23 04:33:00;;;;;;;1.30;0.70;;;9.90;99.90;;;;;;5036845;28;20069;-50
2022/12/23 04:35:27;;;;;;;1.38;0.50;;;10.00;99.90;;;;;;5036751;28;20534;-49
2022/12/23 04:37:53;;;;;;;1.98;0.50;;;9.90;99.90;;;;;;5036784;28;20045;-52
2022/12/23 04:40:20;;;;;;;1.73;0.73;;;9.90;99.90;;;;;;5035683;28;20045;-48
2022/12/23 04:42:47;;;;;;;0.85;0.47;;;9.90;99.90;;;;;;5036579;28;20045;-47
2022/12/23 04:45:14;;;;;;;1.33;0.50;;;9.90;99.90;;;;;;5037080;28;20041;-51
2022/12/23 04:47:40;;;;;;;1.42;0.60;;;9.90;99.90;;;;;;5036863;28;20128;-49
2022/12/23 04:50:07;;;;;;;1.00;0.40;;;9.90;99.90;;;;;;5036706;28;20045;-50
2022/12/23 04:52:34;;;;;;;1.30;0.47;;;9.90;99.90;;;;;;5036523;28;20052;-47
2022/12/23 04:55:01;;;;;;;1.75;0.40;;;9.90;99.90;;;;;;5036271;28;20114;-47
2022/12/23 04:57:27;;;;;;;0.98;0.40;;;9.90;99.90;;;;;;5035939;28;20064;-50
2022/12/23 04:59:54;;;;;;;1.50;0.40;;;9.90;99.90;;;;;;5036571;28;20053;-48
2022/12/23 05:02:21;;;;;;;1.23;0.63;;;9.90;99.90;;;;;;5048656;28;20045;-50
2022/12/23 05:04:48;;;;;;;0.90;0.35;;;9.90;99.90;;;;;;5056197;28;20388;-50
2022/12/23 05:07:15;;;;;;;1.63;0.35;;;9.90;99.90;;;;;;5054664;28;20045;-47
2022/12/23 05:09:41;;;;;;;1.35;0.50;;;9.80;99.90;;;;;;5055766;28;20053;-45
2022/12/23 05:12:08;;;;;;;1.30;0.38;;;9.80;99.90;;;;;;5056381;28;20045;-45
2022/12/23 05:14:35;;;;;;;1.13;0.50;;;9.90;99.90;;;;;;5055224;28;20427;-43
2022/12/23 05:17:01;;;;;;;1.27;0.45;;;9.90;99.90;;;;;;5055447;28;20124;-46
2022/12/23 05:19:33;;;;;;;2.97;0.50;;;9.90;99.90;;;;;;5036128;28;20365;-45
2022/12/23 05:22:00;;;;;;;1.17;0.40;;;9.90;99.90;;;;;;5036160;28;20163;-48
2022/12/23 05:24:26;;;;;;;1.17;0.40;;;9.90;99.90;;;;;;5035747;28;20069;-44
2022/12/23 05:26:53;;;;;;;1.00;0.47;;;9.90;99.90;;;;;;5041354;28;20475;-45
2022/12/23 05:29:26;;;;;;;1.10;0.50;;;9.90;99.90;;;;;;5052774;28;20048;-46
2022/12/23 05:31:52;;;;;;;3.00;0.50;;;9.90;99.90;;;;;;5049218;28;20088;-45
2022/12/23 05:34:19;;;;;;;2.03;0.47;;;9.90;99.90;;;;;;5037522;28;20056;-45
2022/12/23 05:36:46;;;;;;;1.00;0.50;;;9.90;99.90;;;;;;5034705;28;20050;-46
2022/12/23 05:39:13;;;;;;;2.78;0.70;;;9.90;99.90;;;;;;5039142;28;20040;-45
2022/12/23 05:41:39;;;;;;;2.60;0.50;;;9.90;99.90;;;;;;5043197;28;20075;-45
2022/12/23 05:44:06;;;;;;;1.80;0.63;;;9.80;99.90;;;;;;5055762;28;20052;-46
2022/12/23 05:46:33;;;;;;;1.52;0.70;;;9.90;99.90;;;;;;5039639;28;20477;-44
2022/12/23 05:49:00;;;;;;;1.50;0.60;;;9.80;99.90;;;;;;5035580;28;20120;-44
2022/12/23 05:51:27;;;;;;;2.78;0.75;;;9.90;99.90;;;;;;5037704;28;20430;-51
2022/12/23 05:53:53;;;;;;;2.05;0.73;;;9.90;99.90;;;;;;5037607;28;20045;-51
2022/12/23 05:56:20;;;;;;;2.00;0.60;;;9.80;99.90;;;;;;5048307;28;20454;-46
2022/12/23 05:58:47;;;;;;;1.95;0.60;;;9.80;99.90;;;;;;5034658;28;20099;-43
2022/12/23 06:01:14;;;;;;;2.22;0.80;;;9.90;99.90;;;;;;5040996;28;20488;-48
2022/12/23 06:03:40;;;;;;;1.33;0.40;;;9.80;99.90;;;;;;5045791;28;20048;-44
2022/12/23 06:06:07;;;;;;;1.00;0.50;;;9.80;99.90;;;;;;5035533;28;20033;-45
2022/12/23 06:08:34;;;;;;;1.58;0.70;;;9.80;99.90;;;;;;5034213;28;20049;-43
2022/12/23 06:11:01;;;;;;;1.50;1.00;;;9.80;99.90;;;;;;5037127;28;20029;-44
2022/12/23 06:13:28;;;;;;;3.85;0.80;;;9.80;99.90;;;;;;5054981;28;20033;-46
2022/12/23 06:15:54;;;;;;;2.67;1.30;;;9.80;99.90;;;;;;5043987;28;20041;-48
2022/12/23 06:18:21;;;;;;;1.95;1.15;;;9.80;99.90;;;;;;5034520;28;20084;-48
2022/12/23 06:20:48;;;;;;;1.63;0.80;;;9.80;99.90;;;;;;5034573;28;20103;-48
2022/12/23 06:23:15;;;;;;;1.85;0.68;;;9.80;99.90;;;;;;5033817;28;20041;-46
2022/12/23 06:25:41;;;;;;;3.42;0.85;;;9.80;99.90;;;;;;5040438;28;20112;-49
2022/12/23 06:28:08;;;;;;;3.47;0.90;;;9.80;99.90;;;;;;5044011;28;20034;-49
2022/12/23 06:30:35;;;;;;;2.42;0.80;;;9.70;99.90;;;;;;5034518;28;20044;-46
2022/12/23 06:33:02;;;;;;;3.25;1.20;;;9.70;99.90;;;;;;5046108;28;20040;-45
2022/12/23 06:35:28;;;;;;;1.88;0.90;;;9.70;99.90;;;;;;5053025;28;20079;-49
2022/12/23 06:37:55;;;;;;;2.80;0.93;;;9.70;99.90;;;;;;5050533;28;20041;-51
2022/12/23 06:40:22;;;;;;;4.50;1.10;;;9.60;99.90;;;;;;5052694;28;20395;-46
2022/12/23 06:42:49;;;;;;;1.77;0.70;;;9.60;99.90;;;;;;5046724;28;20053;-49
2022/12/23 06:45:15;;;;;;;3.63;1.20;;;9.60;99.90;;;;;;5040127;28;20045;-45
2022/12/23 06:47:42;;;;;;;3.47;1.20;;;9.60;99.90;;;;;;5048018;28;20040;-46
2022/12/23 06:50:09;;;;;;;3.65;2.45;;;9.60;99.90;;;;;;5054120;28;20123;-50
2022/12/23 06:52:36;;;;;;;4.57;2.70;;;9.60;99.90;;;;;;5042534;28;20534;-48
2022/12/23 06:55:02;;;;;;;5.50;2.20;;;9.60;99.90;;;;;;5035047;28;20025;-49
2022/12/23 06:57:29;;;;;;;3.35;2.00;;;9.60;99.90;;;;;;5043156;28;20051;-49
2022/12/23 06:59:56;;;;;;;6.93;2.60;;;9.60;99.90;;;;;;5033788;28;20369;-50
2022/12/23 07:02:23;;;;;;;3.20;1.90;;;9.50;99.90;;;;;;5041672;28;20087;-52
2022/12/23 07:04:49;;;;;;;4.10;2.60;;;9.50;99.90;;;;;;5045445;28;20037;-49
2022/12/23 07:07:16;;;;;;;5.28;2.03;;;9.50;99.90;;;;;;5048506;28;20121;-49
2022/12/23 07:09:43;;;;;;;3.70;1.55;;;9.40;99.90;;;;;;5044609;28;20058;-49
2022/12/23 07:12:10;;;;;;;4.45;1.50;;;9.40;99.90;;;;;;5032311;28;20125;-49
2022/12/23 07:14:36;;;;;;;5.15;1.60;;;9.40;99.90;;;;;;5036367;28;20037;-51
2022/12/23 07:17:03;;;;;;;3.55;1.90;;;9.40;99.90;;;;;;5037436;28;20040;-50
2022/12/23 07:19:30;;;;;;;9.00;5.50;;;9.40;99.90;;;;;;5037657;28;20429;-49
2022/12/23 07:21:57;;;;;;;3.10;1.80;;;9.30;99.90;;;;;;5031912;28;20408;-48
2022/12/23 07:24:23;;;;;;;4.50;1.60;;;9.30;99.90;;;;;;5032747;28;20587;-48
2022/12/23 07:26:50;;;;;;;4.28;1.85;;;9.30;99.90;;;;;;5040388;28;20051;-50
2022/12/23 07:29:17;;;;;;;3.75;1.67;;;9.30;99.90;;;;;;5050160;28;20464;-47
2022/12/23 07:31:44;;;;;;;2.72;1.52;;;9.30;99.90;;;;;;5036043;28;20048;-49
2022/12/23 07:34:11;;;;;;;2.88;1.48;;;9.30;99.90;;;;;;5047303;28;20116;-52
2022/12/23 07:36:37;;;;;;;3.17;1.40;;;9.30;99.90;;;;;;5031848;28;20052;-51
2022/12/23 07:39:04;;;;;;;1.83;1.40;;;9.30;99.90;;;;;;5032942;28;20076;-51
2022/12/23 07:41:31;;;;;;;4.00;1.60;;;9.30;99.90;;;;;;5032907;28;20389;-49
2022/12/23 07:44:04;;;;;;;8.38;1.83;;;9.30;99.90;;;;;;5033375;28;20143;-49
2022/12/23 07:46:31;;;;;;;5.53;1.90;;;9.30;99.90;;;;;;5043149;28;20029;-47
2022/12/23 07:48:58;;;;;;;4.70;2.55;;;9.30;99.90;;;;;;5042819;28;20071;-48
2022/12/23 07:51:25;;;;;;;4.45;3.17;;;9.30;99.90;;;;;;5034352;28;20041;-46
2022/12/23 07:53:51;;;;;;;3.80;1.98;;;9.30;99.90;;;;;;5050061;28;20040;-44
2022/12/23 07:56:18;;;;;;;4.80;2.33;;;9.30;99.90;;;;;;5050930;28;20075;-51
2022/12/23 07:58:45;;;;;;;2.20;1.70;;;9.30;99.90;;;;;;5055505;28;20441;-49
2022/12/23 08:01:11;;;;;;;3.90;2.38;;;9.30;99.90;;;;;;5047888;28;20041;-47
2022/12/23 08:03:38;;;;;;;4.07;2.20;;;9.30;99.90;;;;;;5045121;28;20084;-52
2022/12/23 08:06:05;;;;;;;3.25;1.80;;;9.30;99.90;;;;;;5045728;28;20038;-46
2022/12/23 08:08:32;;;;;;;3.00;1.90;;;9.30;99.90;;;;;;5045545;28;20083;-51
2022/12/23 08:10:59;;;;;;;2.55;1.90;;;9.30;99.90;;;;;;5040107;28;20087;-52
2022/12/23 08:13:25;;;;;;;3.67;1.83;;;9.30;99.90;;;;;;5046305;28;20033;-44
2022/12/23 08:15:52;;;;;;;4.22;2.00;;;9.30;99.90;;;;;;5051725;28;20076;-48
2022/12/23 08:18:19;;;;;;;2.85;1.70;;;9.20;99.90;;;;;;5039013;28;20396;-43
2022/12/23 08:20:46;;;;;;;5.78;2.03;;;9.20;99.90;;;;;;5045848;28;20044;-44
2022/12/23 08:23:12;;;;;;;3.55;1.73;;;9.20;99.90;;;;;;5044259;28;20196;-43
2022/12/23 08:25:39;;;;;;;3.75;2.08;;;9.20;99.90;;;;;;5051302;28;20502;-48
2022/12/23 08:28:06;;;;;;;3.45;2.08;;;9.20;99.90;;;;;;5055423;28;20053;-49
2022/12/23 08:30:32;;;;;;;2.47;1.85;;;9.20;99.90;;;;;;5053781;28;20037;-49
2022/12/23 08:32:59;;;;;;;3.72;1.77;;;9.20;99.90;;;;;;5035633;28;20042;-45
2022/12/23 08:35:26;;;;;;;4.28;1.90;;;9.20;99.90;;;;;;5035798;28;20041;-48
2022/12/23 08:37:53;;;;;;;6.55;1.95;;;9.20;99.90;;;;;;5035602;28;20041;-53
2022/12/23 08:40:19;;;;;;;4.97;1.90;;;9.20;99.90;;;;;;5034413;28;20502;-49
2022/12/23 08:42:46;;;;;;;4.10;2.20;;;9.20;99.90;;;;;;5035452;28;20049;-50
2022/12/23 08:45:14;;;;;;;3.35;1.95;;;9.20;99.90;;;;;;5047176;28;20037;-51
2022/12/23 08:47:41;;;;;;;3.78;2.33;;;9.20;99.90;;;;;;5036043;28;20175;-47
2022/12/23 08:50:10;;;;;;;8.15;2.42;;;9.10;99.90;;;;;;5036042;28;20489;-46
2022/12/23 08:52:37;;;;;;;8.05;2.60;;;9.20;99.90;;;;;;5035956;28;20041;-50
2022/12/23 08:55:03;;;;;;;3.78;2.10;;;9.20;99.90;;;;;;5035646;28;20460;-46
2022/12/23 08:57:30;;;;;;;6.03;2.88;;;9.10;99.90;;;;;;5036040;28;20120;-48
2022/12/23 08:59:57;;;;;;;3.45;2.20;;;9.10;99.90;;;;;;5041991;28;20139;-50
2022/12/23 09:02:24;;;;;;;3.53;1.83;;;9.10;99.90;;;;;;5053660;28;20037;-47
2022/12/23 09:04:51;;;;;;;4.53;1.45;;;9.10;99.90;;;;;;5044355;28;20055;-50
2022/12/23 09:07:17;;;;;;;1.85;0.93;;;9.00;99.90;;;;;;5035417;28;20038;-48
2022/12/23 09:09:44;;;;;;;6.35;1.58;;;9.10;99.90;;;;;;5035842;28;20065;-52
2022/12/23 09:12:11;;;;;;;3.13;2.10;;;9.00;99.90;;;;;;5035715;28;20072;-54
2022/12/23 09:14:38;;;;;;;3.13;2.28;;;9.10;99.90;;;;;;5035177;28;20045;-50
2022/12/23 09:17:05;;;;;;;3.55;2.25;;;9.10;99.90;;;;;;5054892;28;20061;-51
2022/12/23 09:19:32;;;;;;;2.58;1.48;;;9.20;99.90;;;;;;5054901;28;20110;-51
2022/12/23 09:21:58;;;;;;;2.55;1.30;;;9.20;99.90;;;;;;5054864;28;20045;-51
2022/12/23 09:24:25;;;;;;;2.08;1.20;;;9.20;99.90;;;;;;5054690;28;20048;-53
2022/12/23 09:26:52;;;;;;;2.30;1.20;;;9.20;99.90;;;;;;5054519;28;20461;-51
2022/12/23 09:29:19;;;;;;;1.88;1.15;;;9.20;99.90;;;;;;5054863;28;20044;-48
2022/12/23 09:31:45;;;;;;;2.40;1.10;;;9.20;99.90;;;;;;5054563;28;20071;-50
2022/12/23 09:34:12;;;;;;;7.25;2.00;;;9.20;99.90;;;;;;5054496;28;20045;-48
2022/12/23 09:36:39;;;;;;;2.05;1.10;;;9.30;99.90;;;;;;5054180;28;20400;-49
2022/12/23 09:39:06;;;;;;;1.85;1.30;;;9.30;99.90;;;;;;5054600;28;20079;-45
2022/12/23 09:41:32;;;;;;;2.30;1.00;;;9.30;99.90;;;;;;5054488;28;20048;-48
2022/12/23 09:43:59;;;;;;;2.80;1.70;;;9.30;99.90;;;;;;5052134;28;20045;-48
2022/12/23 09:46:26;;;;;;;1.70;1.00;;;9.30;99.90;;;;;;5054103;28;20037;-49
2022/12/23 09:48:53;;;;;;;2.35;1.40;;;9.30;99.90;;;;;;5054377;28;20037;-52
2022/12/23 09:51:19;;;;;;;1.92;1.02;;;9.30;99.90;;;;;;5054073;28;20472;-46
2022/12/23 09:53:46;;;;;;;2.47;1.15;;;9.30;99.90;;;;;;5053986;28;20047;-50
2022/12/23 09:56:13;;;;;;;1.30;0.73;;;9.40;99.90;;;;;;5053516;28;20044;-45
2022/12/23 09:58:40;;;;;;;3.10;0.88;;;9.40;99.90;;;;;;5054397;28;20041;-50
2022/12/23 10:01:06;;;;;;;2.42;1.23;;;9.50;99.90;;;;;;5044186;28;20099;-51
2022/12/23 10:03:33;;;;;;;1.73;0.65;;;9.50;99.90;;;;;;5034673;28;20049;-52
2022/12/23 10:06:00;;;;;;;2.55;1.42;;;9.50;99.90;;;;;;5034255;28;20049;-47
2022/12/23 10:08:27;;;;;;;2.13;0.90;;;9.50;99.90;;;;;;5034596;28;20045;-50
2022/12/23 10:10:54;;;;;;;5.93;0.63;;;9.50;99.90;;;;;;5051933;28;20067;-47
2022/12/23 10:13:21;;;;;;;4.50;0.95;;;9.50;99.90;;;;;;5053557;28;20098;-48
2022/12/23 10:15:48;;;;;;;3.22;0.93;;;9.50;99.90;;;;;;5052613;28;20093;-47
2022/12/23 10:18:15;;;;;;;3.58;1.08;;;9.50;99.90;;;;;;5053125;28;20047;-52
2022/12/23 10:20:41;;;;;;;3.08;1.50;;;9.50;99.90;;;;;;5053588;28;20102;-46
2022/12/23 10:23:08;;;;;;;2.40;1.42;;;9.60;99.90;;;;;;5052733;28;20057;-45
2022/12/23 10:25:35;;;;;;;1.90;1.00;;;9.60;99.90;;;;;;5053314;28;20045;-47
2022/12/23 10:28:02;;;;;;;4.25;1.00;;;9.60;99.90;;;;;;5053438;28;20447;-47
2022/12/23 10:30:28;;;;;;;1.50;0.80;;;9.70;99.90;;;;;;5052522;28;20075;-48
2022/12/23 10:33:15;;;;;;;2.92;1.27;;;9.70;99.90;;;;;;5034144;28;20057;-47
2022/12/23 10:35:42;;;;;;;1.70;0.70;;;9.80;99.90;;;;;;5036584;28;20427;-50
2022/12/23 10:38:09;;;;;;;3.92;0.77;;;9.80;99.90;;;;;;5053263;28;20041;-46
2022/12/23 10:40:35;;;;;;;3.10;0.80;;;9.80;99.90;;;;;;5053186;28;20041;-46
2022/12/23 10:43:02;;;;;;;1.30;0.65;;;9.80;99.90;;;;;;5052177;28;20075;-44
2022/12/23 10:45:31;;;;;;;1.83;1.10;;;9.90;99.90;;;;;;5052970;28;20045;-47
2022/12/23 10:47:58;;;;;;;2.45;1.48;;;9.90;99.90;;;;;;5051980;28;20037;-47
2022/12/23 10:50:25;;;;;;;2.03;1.30;;;10.00;99.90;;;;;;5052639;28;20052;-50
2022/12/23 10:52:52;;;;;;;3.13;1.42;;;10.00;99.90;;;;;;5053445;28;20472;-45
2022/12/23 10:55:18;;;;;;;2.70;1.10;;;10.10;99.90;;;;;;5048803;28;20049;-46
2022/12/23 10:57:45;;;;;;;3.70;1.77;;;10.10;99.90;;;;;;5035274;28;20096;-47
2022/12/23 11:00:12;;;;;;;3.17;1.27;;;10.10;99.90;;;;;;5052655;28;20048;-50
2022/12/23 11:02:39;;;;;;;2.08;1.00;;;10.20;99.90;;;;;;5035594;28;20041;-45
2022/12/23 11:05:06;;;;;;;2.53;1.50;;;10.20;99.90;;;;;;5040441;28;20138;-45
2022/12/23 11:07:33;;;;;;;2.13;1.10;;;10.30;99.90;;;;;;5036364;28;20041;-47
2022/12/23 11:10:15;;;;;;;2.47;1.05;;;10.30;99.90;;;;;;5038591;28;20053;-52
2022/12/23 11:12:42;;;;;;;2.25;1.20;;;10.30;99.90;;;;;;5038395;28;20447;-45
2022/12/23 11:15:09;;;;;;;1.60;0.90;;;10.40;99.90;;;;;;5040579;28;20435;-51
2022/12/23 11:17:35;;;;;;;3.50;1.52;;;10.40;99.90;;;;;;5031403;28;20077;-52
2022/12/23 11:20:02;;;;;;;1.98;1.08;;;10.40;99.90;;;;;;5042852;28;20167;-47
2022/12/23 11:22:29;;;;;;;1.73;0.90;;;10.40;99.90;;;;;;5052801;28;20049;-48
2022/12/23 11:24:55;;;;;;;2.17;0.93;;;10.40;99.90;;;;;;5052761;28;20045;-52
2022/12/23 11:27:22;;;;;;;4.28;1.00;;;10.50;99.90;;;;;;5052511;28;20119;-45
2022/12/23 11:29:49;;;;;;;2.55;0.80;;;10.50;99.90;;;;;;5052693;28;20045;-47
2022/12/23 11:32:16;;;;;;;2.38;0.77;;;10.60;99.90;;;;;;5052877;28;20041;-53
2022/12/23 11:34:42;;;;;;;2.83;1.10;;;10.70;99.90;;;;;;5052673;28;20464;-53
2022/12/23 11:37:09;;;;;;;2.10;1.13;;;10.70;99.90;;;;;;5051565;28;20476;-53
2022/12/23 11:39:36;;;;;;;2.33;1.08;;;10.70;99.90;;;;;;5052576;28;20442;-45
2022/12/23 11:42:03;;;;;;;3.20;1.42;;;10.80;99.90;;;;;;5047860;28;20076;-47
2022/12/23 11:44:29;;;;;;;3.38;1.48;;;10.80;99.90;;;;;;5046791;28;20052;-54
2022/12/23 11:46:56;;;;;;;3.17;2.00;;;10.90;99.90;;;;;;5048232;28;20037;-49
2022/12/23 11:49:23;;;;;;;3.75;1.80;;;10.90;99.90;;;;;;5043865;28;20041;-50
2022/12/23 11:51:50;;;;;;;2.10;1.50;;;11.00;99.90;;;;;;5052366;28;20545;-54
2022/12/23 11:54:17;;;;;;;2.85;1.40;;;11.00;99.90;;;;;;5042192;28;20033;-49
2022/12/23 11:56:43;;;;;;;4.15;1.80;;;11.10;99.90;;;;;;5035157;28;20499;-48
2022/12/23 11:59:10;;;;;;;5.97;1.60;;;11.10;99.90;;;;;;5052547;28;20498;-51
2022/12/23 12:01:38;;;;;;;3.25;1.52;;;11.20;99.90;;;;;;5051660;28;20095;-49
2022/12/23 12:04:05;;;;;;;3.20;1.77;;;11.20;99.90;;;;;;5052754;28;20571;-53
2022/12/23 12:06:31;;;;;;;5.22;1.63;;;11.30;99.90;;;;;;5052424;28;20045;-52
2022/12/23 12:08:58;;;;;;;5.75;1.67;;;11.30;99.90;;;;;;5035836;28;20084;-47
2022/12/23 12:11:25;;;;;;;4.15;1.60;;;11.40;99.90;;;;;;5032064;28;20549;-54
2022/12/23 12:13:51;;;;;;;6.22;1.65;;;11.50;99.90;;;;;;5033469;28;20041;-47
2022/12/23 12:16:18;;;;;;;3.60;1.50;;;11.50;99.90;;;;;;5048060;28;20072;-51
2022/12/23 12:18:45;;;;;;;7.53;1.27;;;11.60;99.90;;;;;;5052303;28;20101;-48
2022/12/23 12:21:20;;;;;;;7.35;1.67;;;11.80;99.90;;;;;;5051418;28;20041;-49
2022/12/23 12:23:47;;;;;;;5.25;1.50;;;11.80;99.90;;;;;;5052546;28;20488;-49
2022/12/23 12:26:14;;;;;;;6.30;1.38;;;11.90;99.90;;;;;;5052051;28;20106;-51
2022/12/23 12:28:41;;;;;;;9.15;2.20;;;12.00;99.90;;;;;;5052239;28;20103;-47
2022/12/23 12:31:08;;;;;;;6.75;1.40;;;12.00;99.90;;;;;;5049856;28;20120;-52
2022/12/23 12:33:34;;;;;;;7.28;1.73;;;12.00;99.90;;;;;;5049002;28;20479;-48
2022/12/23 12:36:02;;;;;;;6.75;2.03;;;12.00;99.90;;;;;;5036842;28;20037;-50
2022/12/23 12:38:31;;;;;;;7.90;1.60;;;12.00;99.90;;;;;;5045314;28;20480;-50
2022/12/23 12:40:58;;;;;;;6.22;1.83;;;12.00;99.90;;;;;;5052817;28;20122;-53
2022/12/23 12:43:24;;;;;;;6.97;1.70;;;12.00;99.90;;;;;;5054977;28;20041;-51
2022/12/23 12:45:51;;;;;;;8.35;1.75;;;11.90;99.90;;;;;;5044654;28;20038;-51
2022/12/23 12:48:21;;;;;;;9.73;2.33;;;12.00;99.90;;;;;;5044041;28;20049;-50
2022/12/23 12:50:47;;;;;;;8.15;1.95;;;12.00;99.90;;;;;;5052048;28;20186;-53
2022/12/23 12:53:14;;;;;;;9.60;1.95;;;12.10;99.90;;;;;;5045504;28;20550;-46
2022/12/23 12:55:41;;;;;;;7.07;1.63;;;12.20;99.90;;;;;;5038952;28;20095;-49
2022/12/23 12:58:08;;;;;;;6.25;1.77;;;12.30;99.90;;;;;;5045829;28;20046;-48
2022/12/23 13:00:34;;;;;;;4.75;1.63;;;12.30;99.90;;;;;;5043433;28;20045;-54
2022/12/23 13:03:01;;;;;;;6.90;1.80;;;12.30;99.90;;;;;;5043232;28;20388;-52
2022/12/23 13:05:28;;;;;;;6.80;1.55;;;12.40;99.90;;;;;;5043642;28;20052;-49
2022/12/23 13:07:55;;;;;;;5.47;1.58;;;12.40;99.90;;;;;;5051569;28;20041;-50
2022/12/23 13:10:21;;;;;;;6.72;1.45;;;12.50;99.90;;;;;;5047748;28;20049;-50
2022/12/23 13:12:48;;;;;;;9.70;1.83;;;12.50;99.90;;;;;;5042783;28;20098;-52
2022/12/23 13:15:15;;;;;;;8.18;1.77;;;12.50;99.90;;;;;;5047760;28;20041;-53